<?xml version="1.0" encoding="UTF-8" standalone="no" ?>
<gpx xmlns="http://www.topografix.com/GPX/1/1" xmlns:xsi="http://www.w3.org/2001/XMLSchema-instance" xsi:schemaLocation="http://www.topografix.com/GPX/1/1 http://www.topografix.com/GPX/1/1/gpx.xsd" version="1.1" creator="VisuGPX - https://www.visugpx.com">
  <metadata>
    <name>Randonnée en vallée de Chevreuse</name>
  </metadata>
  <wpt lat="48.70618" lon="2.03216">
    <ele>92</ele>
    <name><![CDATA[Parking du cimetière]]></name>
  </wpt>
  <wpt lat="48.71002" lon="2.00725">
    <ele>169</ele>
    <name><![CDATA[Poterie]]></name>
  </wpt>
  <wpt lat="48.71621" lon="1.98891">
    <ele>163</ele>
    <name><![CDATA[Bifurcation, à gauche]]></name>
  </wpt>
  <wpt lat="48.71188" lon="1.98583">
    <ele>95</ele>
    <name><![CDATA[Traversée d'un ru.]]></name>
  </wpt>
  <wpt lat="48.70688" lon="1.98487">
    <ele>131</ele>
    <name><![CDATA[Vue sur le château de Dampierre.]]></name>
  </wpt>
  <wpt lat="48.70614" lon="1.98054">
    <ele>155</ele>
    <name><![CDATA[Maison de Fer ]]></name>
  </wpt>
  <wpt lat="48.70613" lon="1.97973">
    <ele>155</ele>
    <name><![CDATA[maison de fer]]></name>
  </wpt>
  <wpt lat="48.7021" lon="1.97398">
    <ele>113</ele>
    <name><![CDATA[Bas du chemin, à gauche]]></name>
  </wpt>
  <wpt lat="48.69951" lon="1.97993">
    <ele>98</ele>
    <name><![CDATA[Abri et point d'eau.]]></name>
  </wpt>
  <wpt lat="48.68491" lon="1.99117">
    <ele>171</ele>
    <name><![CDATA[Centre équestre]]></name>
  </wpt>
  <wpt lat="48.69019" lon="2.01474">
    <ele>113</ele>
    <name><![CDATA[D 906.]]></name>
  </wpt>
  <wpt lat="48.68825" lon="2.02083">
    <ele>118</ele>
    <name><![CDATA[À gauche, Route de la Rimonière]]></name>
  </wpt>
  <wpt lat="48.694" lon="2.02562">
    <ele>115</ele>
    <name><![CDATA[Carrefour, montée à droite]]></name>
  </wpt>
  <wpt lat="48.69399" lon="2.03654">
    <ele>161</ele>
    <name><![CDATA[Route, en face]]></name>
  </wpt>
  <wpt lat="48.70544" lon="2.03766">
    <ele>79</ele>
    <name><![CDATA[À droite, Chemin des Petits Ponts]]></name>
  </wpt>
  <wpt lat="48.70669" lon="2.04416">
    <ele>80</ele>
    <name><![CDATA[Traverser l'Yvette]]></name>
  </wpt>
  <wpt lat="48.70754" lon="2.03982">
    <ele>87</ele>
    <name><![CDATA[Rue Lalande à droite]]></name>
  </wpt>
  <wpt lat="48.70883" lon="2.03861">
    <ele>92</ele>
    <name><![CDATA[Sente en face sous un porche]]></name>
  </wpt>
  <wpt lat="48.7086" lon="2.03684">
    <ele>85</ele>
    <name><![CDATA[À gauche, Rue Jean Mermoz]]></name>
  </wpt>
  <wpt lat="48.7062" lon="2.03216">
    <ele>92</ele>
    <name><![CDATA[Parking du cimetière]]></name>
  </wpt>
  <trk>
    <name><![CDATA[Randonnée en vallée de Chevreuse]]></name>
    <trkseg>
      <trkpt lat="48.70618" lon="2.03216">
        <ele>92</ele>
        <time>2021-06-10T15:23:13+02:00</time>
      </trkpt>
      <trkpt lat="48.70659" lon="2.03199">
        <ele>96</ele>
        <time>2021-06-10T15:23:18+02:00</time>
      </trkpt>
      <trkpt lat="48.70694" lon="2.03178">
        <ele>98</ele>
        <time>2021-06-10T15:23:23+02:00</time>
      </trkpt>
      <trkpt lat="48.70711" lon="2.03158">
        <ele>100</ele>
        <time>2021-06-10T15:23:28+02:00</time>
      </trkpt>
      <trkpt lat="48.70727" lon="2.03138">
        <ele>103</ele>
        <time>2021-06-10T15:23:33+02:00</time>
      </trkpt>
      <trkpt lat="48.70744" lon="2.03106">
        <ele>107</ele>
        <time>2021-06-10T15:23:38+02:00</time>
      </trkpt>
      <trkpt lat="48.70764" lon="2.03072">
        <ele>110</ele>
        <time>2021-06-10T15:23:43+02:00</time>
      </trkpt>
      <trkpt lat="48.70774" lon="2.03052">
        <ele>113</ele>
        <time>2021-06-10T15:23:48+02:00</time>
      </trkpt>
      <trkpt lat="48.70781" lon="2.03027">
        <ele>116</ele>
        <time>2021-06-10T15:23:53+02:00</time>
      </trkpt>
      <trkpt lat="48.70789" lon="2.02991">
        <ele>120</ele>
        <time>2021-06-10T15:23:58+02:00</time>
      </trkpt>
      <trkpt lat="48.70794" lon="2.02974">
        <ele>123</ele>
        <time>2021-06-10T15:24:03+02:00</time>
      </trkpt>
      <trkpt lat="48.70795" lon="2.02956">
        <ele>126</ele>
        <time>2021-06-10T15:24:08+02:00</time>
      </trkpt>
      <trkpt lat="48.70793" lon="2.02941">
        <ele>129</ele>
        <time>2021-06-10T15:24:13+02:00</time>
      </trkpt>
      <trkpt lat="48.70778" lon="2.02894">
        <ele>136</ele>
        <time>2021-06-10T15:24:18+02:00</time>
      </trkpt>
      <trkpt lat="48.70762" lon="2.02841">
        <ele>143</ele>
        <time>2021-06-10T15:24:23+02:00</time>
      </trkpt>
      <trkpt lat="48.70742" lon="2.02784">
        <ele>150</ele>
        <time>2021-06-10T15:24:28+02:00</time>
      </trkpt>
      <trkpt lat="48.7073" lon="2.02722">
        <ele>157</ele>
        <time>2021-06-10T15:24:33+02:00</time>
      </trkpt>
      <trkpt lat="48.70725" lon="2.02697">
        <ele>159</ele>
        <time>2021-06-10T15:24:38+02:00</time>
      </trkpt>
      <trkpt lat="48.70725" lon="2.02687">
        <ele>159</ele>
        <time>2021-06-10T15:24:43+02:00</time>
      </trkpt>
      <trkpt lat="48.70723" lon="2.02633">
        <ele>161</ele>
        <time>2021-06-10T15:24:48+02:00</time>
      </trkpt>
      <trkpt lat="48.70715" lon="2.02592">
        <ele>163</ele>
        <time>2021-06-10T15:24:53+02:00</time>
      </trkpt>
      <trkpt lat="48.70705" lon="2.02552">
        <ele>165</ele>
        <time>2021-06-10T15:24:58+02:00</time>
      </trkpt>
      <trkpt lat="48.70686" lon="2.02483">
        <ele>167</ele>
        <time>2021-06-10T15:25:03+02:00</time>
      </trkpt>
      <trkpt lat="48.70683" lon="2.0243">
        <ele>166</ele>
        <time>2021-06-10T15:25:08+02:00</time>
      </trkpt>
      <trkpt lat="48.70689" lon="2.02372">
        <ele>165</ele>
        <time>2021-06-10T15:25:13+02:00</time>
      </trkpt>
      <trkpt lat="48.70696" lon="2.02287">
        <ele>166</ele>
        <time>2021-06-10T15:25:18+02:00</time>
      </trkpt>
      <trkpt lat="48.70707" lon="2.02208">
        <ele>169</ele>
        <time>2021-06-10T15:25:23+02:00</time>
      </trkpt>
      <trkpt lat="48.70706" lon="2.02099">
        <ele>170</ele>
        <time>2021-06-10T15:25:28+02:00</time>
      </trkpt>
      <trkpt lat="48.70702" lon="2.01999">
        <ele>165</ele>
        <time>2021-06-10T15:25:33+02:00</time>
      </trkpt>
      <trkpt lat="48.70699" lon="2.01964">
        <ele>164</ele>
        <time>2021-06-10T15:25:38+02:00</time>
      </trkpt>
      <trkpt lat="48.70703" lon="2.01931">
        <ele>163</ele>
        <time>2021-06-10T15:25:43+02:00</time>
      </trkpt>
      <trkpt lat="48.70834" lon="2.01333">
        <ele>170</ele>
        <time>2021-06-10T15:25:48+02:00</time>
      </trkpt>
      <trkpt lat="48.70913" lon="2.01025">
        <ele>176</ele>
        <time>2021-06-10T15:25:53+02:00</time>
      </trkpt>
      <trkpt lat="48.70956" lon="2.00873">
        <ele>175</ele>
        <time>2021-06-10T15:25:58+02:00</time>
      </trkpt>
      <trkpt lat="48.70975" lon="2.00801">
        <ele>172</ele>
        <time>2021-06-10T15:26:03+02:00</time>
      </trkpt>
      <trkpt lat="48.71002" lon="2.00725">
        <ele>169</ele>
        <time>2021-06-10T15:26:08+02:00</time>
      </trkpt>
      <trkpt lat="48.70993" lon="2.00716">
        <ele>170</ele>
        <time>2021-06-10T15:26:13+02:00</time>
      </trkpt>
      <trkpt lat="48.70958" lon="2.00683">
        <ele>172</ele>
        <time>2021-06-10T15:26:18+02:00</time>
      </trkpt>
      <trkpt lat="48.70939" lon="2.00659">
        <ele>173</ele>
        <time>2021-06-10T15:26:23+02:00</time>
      </trkpt>
      <trkpt lat="48.70924" lon="2.00619">
        <ele>174</ele>
        <time>2021-06-10T15:26:28+02:00</time>
      </trkpt>
      <trkpt lat="48.70907" lon="2.00578">
        <ele>175</ele>
        <time>2021-06-10T15:26:33+02:00</time>
      </trkpt>
      <trkpt lat="48.70895" lon="2.00538">
        <ele>174</ele>
        <time>2021-06-10T15:26:38+02:00</time>
      </trkpt>
      <trkpt lat="48.70891" lon="2.00508">
        <ele>174</ele>
        <time>2021-06-10T15:26:43+02:00</time>
      </trkpt>
      <trkpt lat="48.70884" lon="2.00452">
        <ele>172</ele>
        <time>2021-06-10T15:26:48+02:00</time>
      </trkpt>
      <trkpt lat="48.70885" lon="2.00388">
        <ele>171</ele>
        <time>2021-06-10T15:26:53+02:00</time>
      </trkpt>
      <trkpt lat="48.70894" lon="2.00341">
        <ele>171</ele>
        <time>2021-06-10T15:26:58+02:00</time>
      </trkpt>
      <trkpt lat="48.70912" lon="2.00307">
        <ele>171</ele>
        <time>2021-06-10T15:27:03+02:00</time>
      </trkpt>
      <trkpt lat="48.70916" lon="2.00274">
        <ele>172</ele>
        <time>2021-06-10T15:27:08+02:00</time>
      </trkpt>
      <trkpt lat="48.70927" lon="2.00233">
        <ele>172</ele>
        <time>2021-06-10T15:27:13+02:00</time>
      </trkpt>
      <trkpt lat="48.70942" lon="2.00198">
        <ele>173</ele>
        <time>2021-06-10T15:27:18+02:00</time>
      </trkpt>
      <trkpt lat="48.70951" lon="2.0017">
        <ele>173</ele>
        <time>2021-06-10T15:27:23+02:00</time>
      </trkpt>
      <trkpt lat="48.70951" lon="2.00162">
        <ele>173</ele>
        <time>2021-06-10T15:27:28+02:00</time>
      </trkpt>
      <trkpt lat="48.7094" lon="2.00162">
        <ele>173</ele>
        <time>2021-06-10T15:27:33+02:00</time>
      </trkpt>
      <trkpt lat="48.70928" lon="2.00162">
        <ele>172</ele>
        <time>2021-06-10T15:27:38+02:00</time>
      </trkpt>
      <trkpt lat="48.7091" lon="2.00159">
        <ele>172</ele>
        <time>2021-06-10T15:27:43+02:00</time>
      </trkpt>
      <trkpt lat="48.70904" lon="2.00156">
        <ele>172</ele>
        <time>2021-06-10T15:27:48+02:00</time>
      </trkpt>
      <trkpt lat="48.709" lon="2.0015">
        <ele>172</ele>
        <time>2021-06-10T15:27:53+02:00</time>
      </trkpt>
      <trkpt lat="48.70885" lon="2.00145">
        <ele>171</ele>
        <time>2021-06-10T15:27:58+02:00</time>
      </trkpt>
      <trkpt lat="48.70871" lon="2.0014">
        <ele>171</ele>
        <time>2021-06-10T15:28:03+02:00</time>
      </trkpt>
      <trkpt lat="48.7086" lon="2.00123">
        <ele>170</ele>
        <time>2021-06-10T15:28:08+02:00</time>
      </trkpt>
      <trkpt lat="48.70861" lon="2.00108">
        <ele>170</ele>
        <time>2021-06-10T15:28:13+02:00</time>
      </trkpt>
      <trkpt lat="48.70868" lon="2.00099">
        <ele>171</ele>
        <time>2021-06-10T15:28:18+02:00</time>
      </trkpt>
      <trkpt lat="48.7088" lon="2.00094">
        <ele>172</ele>
        <time>2021-06-10T15:28:23+02:00</time>
      </trkpt>
      <trkpt lat="48.7089" lon="2.00086">
        <ele>173</ele>
        <time>2021-06-10T15:28:28+02:00</time>
      </trkpt>
      <trkpt lat="48.70899" lon="2.00072">
        <ele>173</ele>
        <time>2021-06-10T15:28:33+02:00</time>
      </trkpt>
      <trkpt lat="48.70916" lon="2.00041">
        <ele>175</ele>
        <time>2021-06-10T15:28:38+02:00</time>
      </trkpt>
      <trkpt lat="48.70966" lon="1.99952">
        <ele>173</ele>
        <time>2021-06-10T15:28:43+02:00</time>
      </trkpt>
      <trkpt lat="48.71065" lon="1.99787">
        <ele>174</ele>
        <time>2021-06-10T15:28:48+02:00</time>
      </trkpt>
      <trkpt lat="48.71073" lon="1.99771">
        <ele>174</ele>
        <time>2021-06-10T15:28:53+02:00</time>
      </trkpt>
      <trkpt lat="48.71082" lon="1.99756">
        <ele>174</ele>
        <time>2021-06-10T15:28:58+02:00</time>
      </trkpt>
      <trkpt lat="48.71114" lon="1.99721">
        <ele>174</ele>
        <time>2021-06-10T15:29:03+02:00</time>
      </trkpt>
      <trkpt lat="48.71142" lon="1.99681">
        <ele>173</ele>
        <time>2021-06-10T15:29:08+02:00</time>
      </trkpt>
      <trkpt lat="48.7117" lon="1.99634">
        <ele>173</ele>
        <time>2021-06-10T15:29:13+02:00</time>
      </trkpt>
      <trkpt lat="48.71199" lon="1.99594">
        <ele>173</ele>
        <time>2021-06-10T15:29:18+02:00</time>
      </trkpt>
      <trkpt lat="48.71243" lon="1.99536">
        <ele>175</ele>
        <time>2021-06-10T15:29:23+02:00</time>
      </trkpt>
      <trkpt lat="48.7126" lon="1.99527">
        <ele>175</ele>
        <time>2021-06-10T15:29:28+02:00</time>
      </trkpt>
      <trkpt lat="48.71286" lon="1.9951">
        <ele>175</ele>
        <time>2021-06-10T15:29:33+02:00</time>
      </trkpt>
      <trkpt lat="48.71352" lon="1.99477">
        <ele>173</ele>
        <time>2021-06-10T15:29:38+02:00</time>
      </trkpt>
      <trkpt lat="48.71443" lon="1.99419">
        <ele>166</ele>
        <time>2021-06-10T15:29:43+02:00</time>
      </trkpt>
      <trkpt lat="48.71489" lon="1.99398">
        <ele>165</ele>
        <time>2021-06-10T15:29:48+02:00</time>
      </trkpt>
      <trkpt lat="48.71495" lon="1.99365">
        <ele>164</ele>
        <time>2021-06-10T15:29:53+02:00</time>
      </trkpt>
      <trkpt lat="48.71508" lon="1.9931">
        <ele>164</ele>
        <time>2021-06-10T15:29:58+02:00</time>
      </trkpt>
      <trkpt lat="48.71519" lon="1.99271">
        <ele>164</ele>
        <time>2021-06-10T15:30:03+02:00</time>
      </trkpt>
      <trkpt lat="48.71534" lon="1.9923">
        <ele>164</ele>
        <time>2021-06-10T15:30:08+02:00</time>
      </trkpt>
      <trkpt lat="48.71565" lon="1.99151">
        <ele>164</ele>
        <time>2021-06-10T15:30:13+02:00</time>
      </trkpt>
      <trkpt lat="48.71586" lon="1.99064">
        <ele>165</ele>
        <time>2021-06-10T15:30:18+02:00</time>
      </trkpt>
      <trkpt lat="48.71606" lon="1.98976">
        <ele>165</ele>
        <time>2021-06-10T15:30:23+02:00</time>
      </trkpt>
      <trkpt lat="48.71621" lon="1.98891">
        <ele>163</ele>
        <time>2021-06-10T15:30:28+02:00</time>
      </trkpt>
      <trkpt lat="48.71617" lon="1.98851">
        <ele>162</ele>
        <time>2021-06-10T15:30:33+02:00</time>
      </trkpt>
      <trkpt lat="48.71616" lon="1.98814">
        <ele>160</ele>
        <time>2021-06-10T15:30:38+02:00</time>
      </trkpt>
      <trkpt lat="48.71618" lon="1.98741">
        <ele>157</ele>
        <time>2021-06-10T15:30:43+02:00</time>
      </trkpt>
      <trkpt lat="48.71642" lon="1.9866">
        <ele>154</ele>
        <time>2021-06-10T15:30:48+02:00</time>
      </trkpt>
      <trkpt lat="48.71646" lon="1.98642">
        <ele>154</ele>
        <time>2021-06-10T15:30:53+02:00</time>
      </trkpt>
      <trkpt lat="48.71648" lon="1.98624">
        <ele>153</ele>
        <time>2021-06-10T15:30:58+02:00</time>
      </trkpt>
      <trkpt lat="48.71643" lon="1.98588">
        <ele>151</ele>
        <time>2021-06-10T15:31:03+02:00</time>
      </trkpt>
      <trkpt lat="48.71641" lon="1.98565">
        <ele>149</ele>
        <time>2021-06-10T15:31:08+02:00</time>
      </trkpt>
      <trkpt lat="48.71639" lon="1.98554">
        <ele>148</ele>
        <time>2021-06-10T15:31:13+02:00</time>
      </trkpt>
      <trkpt lat="48.71646" lon="1.9853">
        <ele>147</ele>
        <time>2021-06-10T15:31:18+02:00</time>
      </trkpt>
      <trkpt lat="48.7165" lon="1.98513">
        <ele>147</ele>
        <time>2021-06-10T15:31:23+02:00</time>
      </trkpt>
      <trkpt lat="48.71653" lon="1.98492">
        <ele>146</ele>
        <time>2021-06-10T15:31:28+02:00</time>
      </trkpt>
      <trkpt lat="48.71651" lon="1.9848">
        <ele>144</ele>
        <time>2021-06-10T15:31:33+02:00</time>
      </trkpt>
      <trkpt lat="48.71643" lon="1.98473">
        <ele>143</ele>
        <time>2021-06-10T15:31:38+02:00</time>
      </trkpt>
      <trkpt lat="48.71635" lon="1.98468">
        <ele>142</ele>
        <time>2021-06-10T15:31:43+02:00</time>
      </trkpt>
      <trkpt lat="48.71616" lon="1.98475">
        <ele>140</ele>
        <time>2021-06-10T15:31:48+02:00</time>
      </trkpt>
      <trkpt lat="48.71594" lon="1.98499">
        <ele>139</ele>
        <time>2021-06-10T15:31:53+02:00</time>
      </trkpt>
      <trkpt lat="48.71572" lon="1.98516">
        <ele>138</ele>
        <time>2021-06-10T15:31:58+02:00</time>
      </trkpt>
      <trkpt lat="48.71544" lon="1.98532">
        <ele>136</ele>
        <time>2021-06-10T15:32:03+02:00</time>
      </trkpt>
      <trkpt lat="48.7153" lon="1.98543">
        <ele>134</ele>
        <time>2021-06-10T15:32:08+02:00</time>
      </trkpt>
      <trkpt lat="48.71512" lon="1.98555">
        <ele>132</ele>
        <time>2021-06-10T15:32:13+02:00</time>
      </trkpt>
      <trkpt lat="48.71503" lon="1.98564">
        <ele>131</ele>
        <time>2021-06-10T15:32:18+02:00</time>
      </trkpt>
      <trkpt lat="48.71495" lon="1.9858">
        <ele>129</ele>
        <time>2021-06-10T15:32:23+02:00</time>
      </trkpt>
      <trkpt lat="48.71482" lon="1.98592">
        <ele>129</ele>
        <time>2021-06-10T15:32:28+02:00</time>
      </trkpt>
      <trkpt lat="48.71462" lon="1.98599">
        <ele>128</ele>
        <time>2021-06-10T15:32:33+02:00</time>
      </trkpt>
      <trkpt lat="48.71451" lon="1.98595">
        <ele>127</ele>
        <time>2021-06-10T15:32:38+02:00</time>
      </trkpt>
      <trkpt lat="48.71436" lon="1.9859">
        <ele>126</ele>
        <time>2021-06-10T15:32:43+02:00</time>
      </trkpt>
      <trkpt lat="48.71416" lon="1.98589">
        <ele>124</ele>
        <time>2021-06-10T15:32:48+02:00</time>
      </trkpt>
      <trkpt lat="48.714" lon="1.98572">
        <ele>124</ele>
        <time>2021-06-10T15:32:53+02:00</time>
      </trkpt>
      <trkpt lat="48.71369" lon="1.98552">
        <ele>121</ele>
        <time>2021-06-10T15:32:58+02:00</time>
      </trkpt>
      <trkpt lat="48.71363" lon="1.98545">
        <ele>120</ele>
        <time>2021-06-10T15:33:03+02:00</time>
      </trkpt>
      <trkpt lat="48.71344" lon="1.98527">
        <ele>117</ele>
        <time>2021-06-10T15:33:08+02:00</time>
      </trkpt>
      <trkpt lat="48.71324" lon="1.98514">
        <ele>113</ele>
        <time>2021-06-10T15:33:13+02:00</time>
      </trkpt>
      <trkpt lat="48.71308" lon="1.98505">
        <ele>110</ele>
        <time>2021-06-10T15:33:18+02:00</time>
      </trkpt>
      <trkpt lat="48.71291" lon="1.98503">
        <ele>107</ele>
        <time>2021-06-10T15:33:23+02:00</time>
      </trkpt>
      <trkpt lat="48.71274" lon="1.98505">
        <ele>104</ele>
        <time>2021-06-10T15:33:28+02:00</time>
      </trkpt>
      <trkpt lat="48.71261" lon="1.98517">
        <ele>102</ele>
        <time>2021-06-10T15:33:33+02:00</time>
      </trkpt>
      <trkpt lat="48.71226" lon="1.98556">
        <ele>99</ele>
        <time>2021-06-10T15:33:38+02:00</time>
      </trkpt>
      <trkpt lat="48.7122" lon="1.98565">
        <ele>98</ele>
        <time>2021-06-10T15:33:43+02:00</time>
      </trkpt>
      <trkpt lat="48.712" lon="1.98577">
        <ele>96</ele>
        <time>2021-06-10T15:33:48+02:00</time>
      </trkpt>
      <trkpt lat="48.71188" lon="1.98583">
        <ele>95</ele>
        <time>2021-06-10T15:33:53+02:00</time>
      </trkpt>
      <trkpt lat="48.7118" lon="1.98594">
        <ele>95</ele>
        <time>2021-06-10T15:33:58+02:00</time>
      </trkpt>
      <trkpt lat="48.71149" lon="1.98587">
        <ele>93</ele>
        <time>2021-06-10T15:34:03+02:00</time>
      </trkpt>
      <trkpt lat="48.71119" lon="1.98582">
        <ele>93</ele>
        <time>2021-06-10T15:34:08+02:00</time>
      </trkpt>
      <trkpt lat="48.71055" lon="1.98576">
        <ele>94</ele>
        <time>2021-06-10T15:34:13+02:00</time>
      </trkpt>
      <trkpt lat="48.71005" lon="1.98591">
        <ele>96</ele>
        <time>2021-06-10T15:34:18+02:00</time>
      </trkpt>
      <trkpt lat="48.70975" lon="1.98593">
        <ele>98</ele>
        <time>2021-06-10T15:34:23+02:00</time>
      </trkpt>
      <trkpt lat="48.7095" lon="1.98581">
        <ele>100</ele>
        <time>2021-06-10T15:34:28+02:00</time>
      </trkpt>
      <trkpt lat="48.70924" lon="1.9856">
        <ele>102</ele>
        <time>2021-06-10T15:34:33+02:00</time>
      </trkpt>
      <trkpt lat="48.70898" lon="1.9855">
        <ele>104</ele>
        <time>2021-06-10T15:34:38+02:00</time>
      </trkpt>
      <trkpt lat="48.70864" lon="1.98542">
        <ele>108</ele>
        <time>2021-06-10T15:34:43+02:00</time>
      </trkpt>
      <trkpt lat="48.7083" lon="1.98546">
        <ele>111</ele>
        <time>2021-06-10T15:34:48+02:00</time>
      </trkpt>
      <trkpt lat="48.70819" lon="1.98577">
        <ele>112</ele>
        <time>2021-06-10T15:34:53+02:00</time>
      </trkpt>
      <trkpt lat="48.7081" lon="1.98597">
        <ele>112</ele>
        <time>2021-06-10T15:34:58+02:00</time>
      </trkpt>
      <trkpt lat="48.70787" lon="1.98646">
        <ele>110</ele>
        <time>2021-06-10T15:35:03+02:00</time>
      </trkpt>
      <trkpt lat="48.70766" lon="1.98619">
        <ele>115</ele>
        <time>2021-06-10T15:35:08+02:00</time>
      </trkpt>
      <trkpt lat="48.70745" lon="1.98587">
        <ele>120</ele>
        <time>2021-06-10T15:35:13+02:00</time>
      </trkpt>
      <trkpt lat="48.70712" lon="1.98526">
        <ele>126</ele>
        <time>2021-06-10T15:35:18+02:00</time>
      </trkpt>
      <trkpt lat="48.70688" lon="1.98487">
        <ele>131</ele>
        <time>2021-06-10T15:35:23+02:00</time>
      </trkpt>
      <trkpt lat="48.70663" lon="1.98532">
        <ele>128</ele>
        <time>2021-06-10T15:35:28+02:00</time>
      </trkpt>
      <trkpt lat="48.70682" lon="1.9848">
        <ele>132</ele>
        <time>2021-06-10T15:35:33+02:00</time>
      </trkpt>
      <trkpt lat="48.70665" lon="1.98439">
        <ele>136</ele>
        <time>2021-06-10T15:35:38+02:00</time>
      </trkpt>
      <trkpt lat="48.70663" lon="1.98426">
        <ele>137</ele>
        <time>2021-06-10T15:35:43+02:00</time>
      </trkpt>
      <trkpt lat="48.70666" lon="1.98405">
        <ele>140</ele>
        <time>2021-06-10T15:35:48+02:00</time>
      </trkpt>
      <trkpt lat="48.7067" lon="1.98368">
        <ele>145</ele>
        <time>2021-06-10T15:35:53+02:00</time>
      </trkpt>
      <trkpt lat="48.70669" lon="1.98359">
        <ele>146</ele>
        <time>2021-06-10T15:35:58+02:00</time>
      </trkpt>
      <trkpt lat="48.70656" lon="1.98308">
        <ele>150</ele>
        <time>2021-06-10T15:36:03+02:00</time>
      </trkpt>
      <trkpt lat="48.70646" lon="1.98259">
        <ele>152</ele>
        <time>2021-06-10T15:36:08+02:00</time>
      </trkpt>
      <trkpt lat="48.70637" lon="1.98215">
        <ele>153</ele>
        <time>2021-06-10T15:36:13+02:00</time>
      </trkpt>
      <trkpt lat="48.70614" lon="1.98132">
        <ele>155</ele>
        <time>2021-06-10T15:36:18+02:00</time>
      </trkpt>
      <trkpt lat="48.70614" lon="1.98054">
        <ele>155</ele>
        <time>2021-06-10T15:36:23+02:00</time>
      </trkpt>
      <trkpt lat="48.70613" lon="1.97973">
        <ele>155</ele>
        <time>2021-06-10T15:36:28+02:00</time>
      </trkpt>
      <trkpt lat="48.70616" lon="1.97761">
        <ele>162</ele>
        <time>2021-06-10T15:36:33+02:00</time>
      </trkpt>
      <trkpt lat="48.70592" lon="1.97749">
        <ele>164</ele>
        <time>2021-06-10T15:36:38+02:00</time>
      </trkpt>
      <trkpt lat="48.70572" lon="1.97743">
        <ele>164</ele>
        <time>2021-06-10T15:36:43+02:00</time>
      </trkpt>
      <trkpt lat="48.70565" lon="1.97737">
        <ele>164</ele>
        <time>2021-06-10T15:36:48+02:00</time>
      </trkpt>
      <trkpt lat="48.7055" lon="1.97714">
        <ele>164</ele>
        <time>2021-06-10T15:36:53+02:00</time>
      </trkpt>
      <trkpt lat="48.70536" lon="1.97676">
        <ele>165</ele>
        <time>2021-06-10T15:36:58+02:00</time>
      </trkpt>
      <trkpt lat="48.70519" lon="1.97638">
        <ele>165</ele>
        <time>2021-06-10T15:37:03+02:00</time>
      </trkpt>
      <trkpt lat="48.70509" lon="1.97602">
        <ele>165</ele>
        <time>2021-06-10T15:37:08+02:00</time>
      </trkpt>
      <trkpt lat="48.70501" lon="1.97573">
        <ele>165</ele>
        <time>2021-06-10T15:37:13+02:00</time>
      </trkpt>
      <trkpt lat="48.70495" lon="1.9754">
        <ele>166</ele>
        <time>2021-06-10T15:37:18+02:00</time>
      </trkpt>
      <trkpt lat="48.7049" lon="1.97482">
        <ele>166</ele>
        <time>2021-06-10T15:37:23+02:00</time>
      </trkpt>
      <trkpt lat="48.70489" lon="1.9744">
        <ele>166</ele>
        <time>2021-06-10T15:37:28+02:00</time>
      </trkpt>
      <trkpt lat="48.70486" lon="1.97406">
        <ele>166</ele>
        <time>2021-06-10T15:37:33+02:00</time>
      </trkpt>
      <trkpt lat="48.70482" lon="1.97367">
        <ele>166</ele>
        <time>2021-06-10T15:37:38+02:00</time>
      </trkpt>
      <trkpt lat="48.70475" lon="1.97322">
        <ele>166</ele>
        <time>2021-06-10T15:37:43+02:00</time>
      </trkpt>
      <trkpt lat="48.70476" lon="1.97229">
        <ele>167</ele>
        <time>2021-06-10T15:37:48+02:00</time>
      </trkpt>
      <trkpt lat="48.70455" lon="1.97237">
        <ele>167</ele>
        <time>2021-06-10T15:37:53+02:00</time>
      </trkpt>
      <trkpt lat="48.70416" lon="1.97249">
        <ele>166</ele>
        <time>2021-06-10T15:37:58+02:00</time>
      </trkpt>
      <trkpt lat="48.70383" lon="1.97262">
        <ele>157</ele>
        <time>2021-06-10T15:38:03+02:00</time>
      </trkpt>
      <trkpt lat="48.70352" lon="1.97269">
        <ele>150</ele>
        <time>2021-06-10T15:38:08+02:00</time>
      </trkpt>
      <trkpt lat="48.70343" lon="1.97278">
        <ele>148</ele>
        <time>2021-06-10T15:38:13+02:00</time>
      </trkpt>
      <trkpt lat="48.70337" lon="1.97287">
        <ele>146</ele>
        <time>2021-06-10T15:38:18+02:00</time>
      </trkpt>
      <trkpt lat="48.70332" lon="1.97297">
        <ele>145</ele>
        <time>2021-06-10T15:38:23+02:00</time>
      </trkpt>
      <trkpt lat="48.70328" lon="1.97306">
        <ele>144</ele>
        <time>2021-06-10T15:38:28+02:00</time>
      </trkpt>
      <trkpt lat="48.70321" lon="1.97315">
        <ele>142</ele>
        <time>2021-06-10T15:38:33+02:00</time>
      </trkpt>
      <trkpt lat="48.70317" lon="1.97327">
        <ele>140</ele>
        <time>2021-06-10T15:38:38+02:00</time>
      </trkpt>
      <trkpt lat="48.70311" lon="1.97337">
        <ele>138</ele>
        <time>2021-06-10T15:38:43+02:00</time>
      </trkpt>
      <trkpt lat="48.70305" lon="1.97354">
        <ele>137</ele>
        <time>2021-06-10T15:38:48+02:00</time>
      </trkpt>
      <trkpt lat="48.70298" lon="1.97373">
        <ele>135</ele>
        <time>2021-06-10T15:38:53+02:00</time>
      </trkpt>
      <trkpt lat="48.70288" lon="1.97382">
        <ele>131</ele>
        <time>2021-06-10T15:38:58+02:00</time>
      </trkpt>
      <trkpt lat="48.70282" lon="1.97391">
        <ele>130</ele>
        <time>2021-06-10T15:39:03+02:00</time>
      </trkpt>
      <trkpt lat="48.70272" lon="1.97392">
        <ele>126</ele>
        <time>2021-06-10T15:39:08+02:00</time>
      </trkpt>
      <trkpt lat="48.70264" lon="1.97391">
        <ele>123</ele>
        <time>2021-06-10T15:39:13+02:00</time>
      </trkpt>
      <trkpt lat="48.70253" lon="1.97389">
        <ele>119</ele>
        <time>2021-06-10T15:39:18+02:00</time>
      </trkpt>
      <trkpt lat="48.70246" lon="1.97386">
        <ele>117</ele>
        <time>2021-06-10T15:39:23+02:00</time>
      </trkpt>
      <trkpt lat="48.70239" lon="1.97384">
        <ele>117</ele>
        <time>2021-06-10T15:39:28+02:00</time>
      </trkpt>
      <trkpt lat="48.70233" lon="1.97383">
        <ele>116</ele>
        <time>2021-06-10T15:39:33+02:00</time>
      </trkpt>
      <trkpt lat="48.70226" lon="1.97381">
        <ele>115</ele>
        <time>2021-06-10T15:39:38+02:00</time>
      </trkpt>
      <trkpt lat="48.70218" lon="1.9738">
        <ele>114</ele>
        <time>2021-06-10T15:39:43+02:00</time>
      </trkpt>
      <trkpt lat="48.70216" lon="1.97388">
        <ele>114</ele>
        <time>2021-06-10T15:39:48+02:00</time>
      </trkpt>
      <trkpt lat="48.7021" lon="1.97398">
        <ele>113</ele>
        <time>2021-06-10T15:39:53+02:00</time>
      </trkpt>
      <trkpt lat="48.70204" lon="1.97411">
        <ele>113</ele>
        <time>2021-06-10T15:39:58+02:00</time>
      </trkpt>
      <trkpt lat="48.702" lon="1.97422">
        <ele>113</ele>
        <time>2021-06-10T15:40:03+02:00</time>
      </trkpt>
      <trkpt lat="48.70195" lon="1.97433">
        <ele>112</ele>
        <time>2021-06-10T15:40:08+02:00</time>
      </trkpt>
      <trkpt lat="48.70189" lon="1.97448">
        <ele>112</ele>
        <time>2021-06-10T15:40:13+02:00</time>
      </trkpt>
      <trkpt lat="48.70172" lon="1.9744">
        <ele>109</ele>
        <time>2021-06-10T15:40:18+02:00</time>
      </trkpt>
      <trkpt lat="48.7016" lon="1.97438">
        <ele>108</ele>
        <time>2021-06-10T15:40:23+02:00</time>
      </trkpt>
      <trkpt lat="48.70095" lon="1.97434">
        <ele>109</ele>
        <time>2021-06-10T15:40:28+02:00</time>
      </trkpt>
      <trkpt lat="48.70037" lon="1.97433">
        <ele>111</ele>
        <time>2021-06-10T15:40:33+02:00</time>
      </trkpt>
      <trkpt lat="48.70027" lon="1.97435">
        <ele>111</ele>
        <time>2021-06-10T15:40:38+02:00</time>
      </trkpt>
      <trkpt lat="48.70018" lon="1.97441">
        <ele>111</ele>
        <time>2021-06-10T15:40:43+02:00</time>
      </trkpt>
      <trkpt lat="48.70012" lon="1.97462">
        <ele>111</ele>
        <time>2021-06-10T15:40:48+02:00</time>
      </trkpt>
      <trkpt lat="48.7001" lon="1.97491">
        <ele>110</ele>
        <time>2021-06-10T15:40:53+02:00</time>
      </trkpt>
      <trkpt lat="48.70006" lon="1.97507">
        <ele>110</ele>
        <time>2021-06-10T15:40:58+02:00</time>
      </trkpt>
      <trkpt lat="48.70001" lon="1.97524">
        <ele>109</ele>
        <time>2021-06-10T15:41:03+02:00</time>
      </trkpt>
      <trkpt lat="48.70011" lon="1.97562">
        <ele>107</ele>
        <time>2021-06-10T15:41:08+02:00</time>
      </trkpt>
      <trkpt lat="48.70014" lon="1.9758">
        <ele>107</ele>
        <time>2021-06-10T15:41:13+02:00</time>
      </trkpt>
      <trkpt lat="48.70015" lon="1.97598">
        <ele>106</ele>
        <time>2021-06-10T15:41:18+02:00</time>
      </trkpt>
      <trkpt lat="48.70016" lon="1.9764">
        <ele>105</ele>
        <time>2021-06-10T15:41:23+02:00</time>
      </trkpt>
      <trkpt lat="48.70015" lon="1.97683">
        <ele>105</ele>
        <time>2021-06-10T15:41:28+02:00</time>
      </trkpt>
      <trkpt lat="48.70014" lon="1.97763">
        <ele>105</ele>
        <time>2021-06-10T15:41:33+02:00</time>
      </trkpt>
      <trkpt lat="48.70005" lon="1.97801">
        <ele>104</ele>
        <time>2021-06-10T15:41:38+02:00</time>
      </trkpt>
      <trkpt lat="48.69978" lon="1.97888">
        <ele>103</ele>
        <time>2021-06-10T15:41:43+02:00</time>
      </trkpt>
      <trkpt lat="48.69951" lon="1.97993">
        <ele>98</ele>
        <time>2021-06-10T15:41:48+02:00</time>
      </trkpt>
      <trkpt lat="48.69851" lon="1.97926">
        <ele>104</ele>
        <time>2021-06-10T15:41:53+02:00</time>
      </trkpt>
      <trkpt lat="48.69799" lon="1.97886">
        <ele>105</ele>
        <time>2021-06-10T15:41:58+02:00</time>
      </trkpt>
      <trkpt lat="48.69756" lon="1.9786">
        <ele>106</ele>
        <time>2021-06-10T15:42:03+02:00</time>
      </trkpt>
      <trkpt lat="48.69715" lon="1.98004">
        <ele>102</ele>
        <time>2021-06-10T15:42:08+02:00</time>
      </trkpt>
      <trkpt lat="48.69705" lon="1.98043">
        <ele>101</ele>
        <time>2021-06-10T15:42:13+02:00</time>
      </trkpt>
      <trkpt lat="48.69694" lon="1.98074">
        <ele>101</ele>
        <time>2021-06-10T15:42:18+02:00</time>
      </trkpt>
      <trkpt lat="48.69684" lon="1.98105">
        <ele>99</ele>
        <time>2021-06-10T15:42:23+02:00</time>
      </trkpt>
      <trkpt lat="48.69671" lon="1.98143">
        <ele>97</ele>
        <time>2021-06-10T15:42:28+02:00</time>
      </trkpt>
      <trkpt lat="48.69645" lon="1.98195">
        <ele>94</ele>
        <time>2021-06-10T15:42:33+02:00</time>
      </trkpt>
      <trkpt lat="48.69621" lon="1.98238">
        <ele>94</ele>
        <time>2021-06-10T15:42:38+02:00</time>
      </trkpt>
      <trkpt lat="48.69584" lon="1.98284">
        <ele>92</ele>
        <time>2021-06-10T15:42:43+02:00</time>
      </trkpt>
      <trkpt lat="48.69563" lon="1.98296">
        <ele>92</ele>
        <time>2021-06-10T15:42:48+02:00</time>
      </trkpt>
      <trkpt lat="48.69539" lon="1.98305">
        <ele>91</ele>
        <time>2021-06-10T15:42:53+02:00</time>
      </trkpt>
      <trkpt lat="48.6951" lon="1.98313">
        <ele>91</ele>
        <time>2021-06-10T15:42:58+02:00</time>
      </trkpt>
      <trkpt lat="48.69497" lon="1.98324">
        <ele>90</ele>
        <time>2021-06-10T15:43:03+02:00</time>
      </trkpt>
      <trkpt lat="48.69457" lon="1.98401">
        <ele>94</ele>
        <time>2021-06-10T15:43:08+02:00</time>
      </trkpt>
      <trkpt lat="48.69414" lon="1.98471">
        <ele>102</ele>
        <time>2021-06-10T15:43:13+02:00</time>
      </trkpt>
      <trkpt lat="48.69407" lon="1.98479">
        <ele>103</ele>
        <time>2021-06-10T15:43:18+02:00</time>
      </trkpt>
      <trkpt lat="48.6939" lon="1.98487">
        <ele>104</ele>
        <time>2021-06-10T15:43:23+02:00</time>
      </trkpt>
      <trkpt lat="48.69378" lon="1.9849">
        <ele>104</ele>
        <time>2021-06-10T15:43:28+02:00</time>
      </trkpt>
      <trkpt lat="48.69365" lon="1.98491">
        <ele>104</ele>
        <time>2021-06-10T15:43:33+02:00</time>
      </trkpt>
      <trkpt lat="48.69262" lon="1.98464">
        <ele>105</ele>
        <time>2021-06-10T15:43:38+02:00</time>
      </trkpt>
      <trkpt lat="48.69204" lon="1.98464">
        <ele>107</ele>
        <time>2021-06-10T15:43:43+02:00</time>
      </trkpt>
      <trkpt lat="48.69154" lon="1.98465">
        <ele>108</ele>
        <time>2021-06-10T15:43:48+02:00</time>
      </trkpt>
      <trkpt lat="48.69146" lon="1.9846">
        <ele>108</ele>
        <time>2021-06-10T15:43:53+02:00</time>
      </trkpt>
      <trkpt lat="48.69133" lon="1.98454">
        <ele>108</ele>
        <time>2021-06-10T15:43:58+02:00</time>
      </trkpt>
      <trkpt lat="48.69097" lon="1.98418">
        <ele>106</ele>
        <time>2021-06-10T15:44:03+02:00</time>
      </trkpt>
      <trkpt lat="48.69059" lon="1.98382">
        <ele>106</ele>
        <time>2021-06-10T15:44:08+02:00</time>
      </trkpt>
      <trkpt lat="48.6904" lon="1.98366">
        <ele>106</ele>
        <time>2021-06-10T15:44:13+02:00</time>
      </trkpt>
      <trkpt lat="48.6903" lon="1.98354">
        <ele>106</ele>
        <time>2021-06-10T15:44:18+02:00</time>
      </trkpt>
      <trkpt lat="48.69017" lon="1.9834">
        <ele>105</ele>
        <time>2021-06-10T15:44:23+02:00</time>
      </trkpt>
      <trkpt lat="48.69006" lon="1.98319">
        <ele>104</ele>
        <time>2021-06-10T15:44:28+02:00</time>
      </trkpt>
      <trkpt lat="48.68994" lon="1.98303">
        <ele>104</ele>
        <time>2021-06-10T15:44:33+02:00</time>
      </trkpt>
      <trkpt lat="48.68983" lon="1.98288">
        <ele>103</ele>
        <time>2021-06-10T15:44:38+02:00</time>
      </trkpt>
      <trkpt lat="48.68963" lon="1.98274">
        <ele>103</ele>
        <time>2021-06-10T15:44:43+02:00</time>
      </trkpt>
      <trkpt lat="48.68932" lon="1.9826">
        <ele>103</ele>
        <time>2021-06-10T15:44:48+02:00</time>
      </trkpt>
      <trkpt lat="48.68918" lon="1.9826">
        <ele>104</ele>
        <time>2021-06-10T15:44:53+02:00</time>
      </trkpt>
      <trkpt lat="48.68903" lon="1.98257">
        <ele>104</ele>
        <time>2021-06-10T15:44:58+02:00</time>
      </trkpt>
      <trkpt lat="48.68888" lon="1.98266">
        <ele>105</ele>
        <time>2021-06-10T15:45:03+02:00</time>
      </trkpt>
      <trkpt lat="48.68861" lon="1.98296">
        <ele>109</ele>
        <time>2021-06-10T15:45:08+02:00</time>
      </trkpt>
      <trkpt lat="48.68861" lon="1.98296">
        <ele>109</ele>
        <time>2021-06-10T15:45:13+02:00</time>
      </trkpt>
      <trkpt lat="48.68849" lon="1.98312">
        <ele>110</ele>
        <time>2021-06-10T15:45:18+02:00</time>
      </trkpt>
      <trkpt lat="48.68843" lon="1.98318">
        <ele>111</ele>
        <time>2021-06-10T15:45:23+02:00</time>
      </trkpt>
      <trkpt lat="48.68836" lon="1.98322">
        <ele>111</ele>
        <time>2021-06-10T15:45:28+02:00</time>
      </trkpt>
      <trkpt lat="48.68827" lon="1.98319">
        <ele>112</ele>
        <time>2021-06-10T15:45:33+02:00</time>
      </trkpt>
      <trkpt lat="48.68822" lon="1.98311">
        <ele>111</ele>
        <time>2021-06-10T15:45:38+02:00</time>
      </trkpt>
      <trkpt lat="48.68815" lon="1.98336">
        <ele>114</ele>
        <time>2021-06-10T15:45:43+02:00</time>
      </trkpt>
      <trkpt lat="48.68809" lon="1.98359">
        <ele>117</ele>
        <time>2021-06-10T15:45:48+02:00</time>
      </trkpt>
      <trkpt lat="48.68807" lon="1.98414">
        <ele>126</ele>
        <time>2021-06-10T15:45:53+02:00</time>
      </trkpt>
      <trkpt lat="48.68799" lon="1.98441">
        <ele>128</ele>
        <time>2021-06-10T15:45:58+02:00</time>
      </trkpt>
      <trkpt lat="48.68783" lon="1.98484">
        <ele>129</ele>
        <time>2021-06-10T15:46:03+02:00</time>
      </trkpt>
      <trkpt lat="48.68766" lon="1.9851">
        <ele>130</ele>
        <time>2021-06-10T15:46:08+02:00</time>
      </trkpt>
      <trkpt lat="48.68755" lon="1.98534">
        <ele>132</ele>
        <time>2021-06-10T15:46:13+02:00</time>
      </trkpt>
      <trkpt lat="48.68743" lon="1.98558">
        <ele>135</ele>
        <time>2021-06-10T15:46:18+02:00</time>
      </trkpt>
      <trkpt lat="48.68731" lon="1.98588">
        <ele>140</ele>
        <time>2021-06-10T15:46:23+02:00</time>
      </trkpt>
      <trkpt lat="48.68719" lon="1.98614">
        <ele>145</ele>
        <time>2021-06-10T15:46:28+02:00</time>
      </trkpt>
      <trkpt lat="48.68713" lon="1.98635">
        <ele>148</ele>
        <time>2021-06-10T15:46:33+02:00</time>
      </trkpt>
      <trkpt lat="48.68709" lon="1.98642">
        <ele>149</ele>
        <time>2021-06-10T15:46:38+02:00</time>
      </trkpt>
      <trkpt lat="48.68698" lon="1.98666">
        <ele>151</ele>
        <time>2021-06-10T15:46:43+02:00</time>
      </trkpt>
      <trkpt lat="48.68681" lon="1.98693">
        <ele>154</ele>
        <time>2021-06-10T15:46:48+02:00</time>
      </trkpt>
      <trkpt lat="48.68656" lon="1.98723">
        <ele>159</ele>
        <time>2021-06-10T15:46:53+02:00</time>
      </trkpt>
      <trkpt lat="48.68628" lon="1.9875">
        <ele>166</ele>
        <time>2021-06-10T15:46:58+02:00</time>
      </trkpt>
      <trkpt lat="48.68588" lon="1.98785">
        <ele>173</ele>
        <time>2021-06-10T15:47:03+02:00</time>
      </trkpt>
      <trkpt lat="48.68572" lon="1.98811">
        <ele>174</ele>
        <time>2021-06-10T15:47:08+02:00</time>
      </trkpt>
      <trkpt lat="48.68544" lon="1.98842">
        <ele>173</ele>
        <time>2021-06-10T15:47:13+02:00</time>
      </trkpt>
      <trkpt lat="48.68545" lon="1.98943">
        <ele>172</ele>
        <time>2021-06-10T15:47:18+02:00</time>
      </trkpt>
      <trkpt lat="48.68512" lon="1.9907">
        <ele>171</ele>
        <time>2021-06-10T15:47:23+02:00</time>
      </trkpt>
      <trkpt lat="48.68505" lon="1.99079">
        <ele>171</ele>
        <time>2021-06-10T15:47:28+02:00</time>
      </trkpt>
      <trkpt lat="48.68491" lon="1.99117">
        <ele>171</ele>
        <time>2021-06-10T15:47:33+02:00</time>
      </trkpt>
      <trkpt lat="48.6855" lon="1.99164">
        <ele>172</ele>
        <time>2021-06-10T15:47:38+02:00</time>
      </trkpt>
      <trkpt lat="48.68558" lon="1.99179">
        <ele>172</ele>
        <time>2021-06-10T15:47:43+02:00</time>
      </trkpt>
      <trkpt lat="48.68568" lon="1.99173">
        <ele>172</ele>
        <time>2021-06-10T15:47:48+02:00</time>
      </trkpt>
      <trkpt lat="48.68582" lon="1.99173">
        <ele>172</ele>
        <time>2021-06-10T15:47:53+02:00</time>
      </trkpt>
      <trkpt lat="48.68656" lon="1.99206">
        <ele>174</ele>
        <time>2021-06-10T15:47:58+02:00</time>
      </trkpt>
      <trkpt lat="48.68861" lon="1.99299">
        <ele>172</ele>
        <time>2021-06-10T15:48:03+02:00</time>
      </trkpt>
      <trkpt lat="48.68878" lon="1.99308">
        <ele>172</ele>
        <time>2021-06-10T15:48:08+02:00</time>
      </trkpt>
      <trkpt lat="48.68891" lon="1.99319">
        <ele>171</ele>
        <time>2021-06-10T15:48:13+02:00</time>
      </trkpt>
      <trkpt lat="48.6888" lon="1.99377">
        <ele>171</ele>
        <time>2021-06-10T15:48:18+02:00</time>
      </trkpt>
      <trkpt lat="48.68865" lon="1.99464">
        <ele>172</ele>
        <time>2021-06-10T15:48:23+02:00</time>
      </trkpt>
      <trkpt lat="48.68851" lon="1.99548">
        <ele>172</ele>
        <time>2021-06-10T15:48:28+02:00</time>
      </trkpt>
      <trkpt lat="48.68845" lon="1.99603">
        <ele>173</ele>
        <time>2021-06-10T15:48:33+02:00</time>
      </trkpt>
      <trkpt lat="48.68836" lon="1.99656">
        <ele>173</ele>
        <time>2021-06-10T15:48:38+02:00</time>
      </trkpt>
      <trkpt lat="48.68827" lon="1.9975">
        <ele>173</ele>
        <time>2021-06-10T15:48:43+02:00</time>
      </trkpt>
      <trkpt lat="48.68825" lon="1.99816">
        <ele>172</ele>
        <time>2021-06-10T15:48:48+02:00</time>
      </trkpt>
      <trkpt lat="48.68826" lon="1.99838">
        <ele>172</ele>
        <time>2021-06-10T15:48:53+02:00</time>
      </trkpt>
      <trkpt lat="48.68825" lon="1.99911">
        <ele>171</ele>
        <time>2021-06-10T15:48:58+02:00</time>
      </trkpt>
      <trkpt lat="48.68825" lon="1.99957">
        <ele>171</ele>
        <time>2021-06-10T15:49:03+02:00</time>
      </trkpt>
      <trkpt lat="48.68826" lon="2.00001">
        <ele>171</ele>
        <time>2021-06-10T15:49:08+02:00</time>
      </trkpt>
      <trkpt lat="48.6884" lon="2.00303">
        <ele>166</ele>
        <time>2021-06-10T15:49:13+02:00</time>
      </trkpt>
      <trkpt lat="48.68846" lon="2.0031">
        <ele>166</ele>
        <time>2021-06-10T15:49:18+02:00</time>
      </trkpt>
      <trkpt lat="48.68854" lon="2.00315">
        <ele>166</ele>
        <time>2021-06-10T15:49:23+02:00</time>
      </trkpt>
      <trkpt lat="48.68859" lon="2.00327">
        <ele>166</ele>
        <time>2021-06-10T15:49:28+02:00</time>
      </trkpt>
      <trkpt lat="48.6886" lon="2.00337">
        <ele>166</ele>
        <time>2021-06-10T15:49:33+02:00</time>
      </trkpt>
      <trkpt lat="48.6886" lon="2.00365">
        <ele>165</ele>
        <time>2021-06-10T15:49:38+02:00</time>
      </trkpt>
      <trkpt lat="48.68856" lon="2.0041">
        <ele>162</ele>
        <time>2021-06-10T15:49:43+02:00</time>
      </trkpt>
      <trkpt lat="48.68855" lon="2.00427">
        <ele>161</ele>
        <time>2021-06-10T15:49:48+02:00</time>
      </trkpt>
      <trkpt lat="48.68852" lon="2.00439">
        <ele>161</ele>
        <time>2021-06-10T15:49:53+02:00</time>
      </trkpt>
      <trkpt lat="48.68847" lon="2.00458">
        <ele>160</ele>
        <time>2021-06-10T15:49:58+02:00</time>
      </trkpt>
      <trkpt lat="48.68837" lon="2.0048">
        <ele>159</ele>
        <time>2021-06-10T15:50:03+02:00</time>
      </trkpt>
      <trkpt lat="48.68795" lon="2.00598">
        <ele>157</ele>
        <time>2021-06-10T15:50:08+02:00</time>
      </trkpt>
      <trkpt lat="48.68773" lon="2.00667">
        <ele>156</ele>
        <time>2021-06-10T15:50:13+02:00</time>
      </trkpt>
      <trkpt lat="48.68769" lon="2.00677">
        <ele>156</ele>
        <time>2021-06-10T15:50:18+02:00</time>
      </trkpt>
      <trkpt lat="48.68763" lon="2.00692">
        <ele>156</ele>
        <time>2021-06-10T15:50:23+02:00</time>
      </trkpt>
      <trkpt lat="48.68747" lon="2.00747">
        <ele>155</ele>
        <time>2021-06-10T15:50:28+02:00</time>
      </trkpt>
      <trkpt lat="48.68739" lon="2.00785">
        <ele>153</ele>
        <time>2021-06-10T15:50:33+02:00</time>
      </trkpt>
      <trkpt lat="48.68751" lon="2.00804">
        <ele>151</ele>
        <time>2021-06-10T15:50:38+02:00</time>
      </trkpt>
      <trkpt lat="48.68775" lon="2.00856">
        <ele>145</ele>
        <time>2021-06-10T15:50:43+02:00</time>
      </trkpt>
      <trkpt lat="48.6881" lon="2.00944">
        <ele>138</ele>
        <time>2021-06-10T15:50:48+02:00</time>
      </trkpt>
      <trkpt lat="48.68878" lon="2.01116">
        <ele>125</ele>
        <time>2021-06-10T15:50:53+02:00</time>
      </trkpt>
      <trkpt lat="48.68889" lon="2.01146">
        <ele>123</ele>
        <time>2021-06-10T15:50:58+02:00</time>
      </trkpt>
      <trkpt lat="48.68907" lon="2.01205">
        <ele>119</ele>
        <time>2021-06-10T15:51:03+02:00</time>
      </trkpt>
      <trkpt lat="48.68932" lon="2.01271">
        <ele>117</ele>
        <time>2021-06-10T15:51:08+02:00</time>
      </trkpt>
      <trkpt lat="48.68978" lon="2.01374">
        <ele>114</ele>
        <time>2021-06-10T15:51:13+02:00</time>
      </trkpt>
      <trkpt lat="48.68997" lon="2.01417">
        <ele>113</ele>
        <time>2021-06-10T15:51:18+02:00</time>
      </trkpt>
      <trkpt lat="48.69019" lon="2.01474">
        <ele>113</ele>
        <time>2021-06-10T15:51:23+02:00</time>
      </trkpt>
      <trkpt lat="48.69034" lon="2.01483">
        <ele>113</ele>
        <time>2021-06-10T15:51:28+02:00</time>
      </trkpt>
      <trkpt lat="48.69078" lon="2.01529">
        <ele>115</ele>
        <time>2021-06-10T15:51:33+02:00</time>
      </trkpt>
      <trkpt lat="48.69062" lon="2.01553">
        <ele>115</ele>
        <time>2021-06-10T15:51:38+02:00</time>
      </trkpt>
      <trkpt lat="48.69039" lon="2.01575">
        <ele>115</ele>
        <time>2021-06-10T15:51:43+02:00</time>
      </trkpt>
      <trkpt lat="48.69004" lon="2.01605">
        <ele>112</ele>
        <time>2021-06-10T15:51:48+02:00</time>
      </trkpt>
      <trkpt lat="48.68948" lon="2.01651">
        <ele>109</ele>
        <time>2021-06-10T15:51:53+02:00</time>
      </trkpt>
      <trkpt lat="48.68926" lon="2.01665">
        <ele>109</ele>
        <time>2021-06-10T15:51:58+02:00</time>
      </trkpt>
      <trkpt lat="48.68889" lon="2.01676">
        <ele>110</ele>
        <time>2021-06-10T15:52:03+02:00</time>
      </trkpt>
      <trkpt lat="48.68869" lon="2.01686">
        <ele>110</ele>
        <time>2021-06-10T15:52:08+02:00</time>
      </trkpt>
      <trkpt lat="48.68853" lon="2.01697">
        <ele>110</ele>
        <time>2021-06-10T15:52:13+02:00</time>
      </trkpt>
      <trkpt lat="48.68829" lon="2.0173">
        <ele>111</ele>
        <time>2021-06-10T15:52:18+02:00</time>
      </trkpt>
      <trkpt lat="48.68797" lon="2.01776">
        <ele>113</ele>
        <time>2021-06-10T15:52:23+02:00</time>
      </trkpt>
      <trkpt lat="48.68772" lon="2.01808">
        <ele>114</ele>
        <time>2021-06-10T15:52:28+02:00</time>
      </trkpt>
      <trkpt lat="48.68755" lon="2.01828">
        <ele>114</ele>
        <time>2021-06-10T15:52:33+02:00</time>
      </trkpt>
      <trkpt lat="48.68736" lon="2.01843">
        <ele>115</ele>
        <time>2021-06-10T15:52:38+02:00</time>
      </trkpt>
      <trkpt lat="48.68736" lon="2.01853">
        <ele>115</ele>
        <time>2021-06-10T15:52:43+02:00</time>
      </trkpt>
      <trkpt lat="48.68742" lon="2.0186">
        <ele>114</ele>
        <time>2021-06-10T15:52:48+02:00</time>
      </trkpt>
      <trkpt lat="48.68754" lon="2.01884">
        <ele>113</ele>
        <time>2021-06-10T15:52:53+02:00</time>
      </trkpt>
      <trkpt lat="48.6878" lon="2.0194">
        <ele>113</ele>
        <time>2021-06-10T15:52:58+02:00</time>
      </trkpt>
      <trkpt lat="48.68796" lon="2.01987">
        <ele>113</ele>
        <time>2021-06-10T15:53:03+02:00</time>
      </trkpt>
      <trkpt lat="48.68813" lon="2.02043">
        <ele>115</ele>
        <time>2021-06-10T15:53:08+02:00</time>
      </trkpt>
      <trkpt lat="48.68825" lon="2.02083">
        <ele>118</ele>
        <time>2021-06-10T15:53:13+02:00</time>
      </trkpt>
      <trkpt lat="48.68863" lon="2.02059">
        <ele>118</ele>
        <time>2021-06-10T15:53:18+02:00</time>
      </trkpt>
      <trkpt lat="48.68883" lon="2.02053">
        <ele>119</ele>
        <time>2021-06-10T15:53:23+02:00</time>
      </trkpt>
      <trkpt lat="48.68902" lon="2.02055">
        <ele>120</ele>
        <time>2021-06-10T15:53:28+02:00</time>
      </trkpt>
      <trkpt lat="48.68923" lon="2.02061">
        <ele>122</ele>
        <time>2021-06-10T15:53:33+02:00</time>
      </trkpt>
      <trkpt lat="48.6896" lon="2.02076">
        <ele>123</ele>
        <time>2021-06-10T15:53:38+02:00</time>
      </trkpt>
      <trkpt lat="48.68981" lon="2.02082">
        <ele>123</ele>
        <time>2021-06-10T15:53:43+02:00</time>
      </trkpt>
      <trkpt lat="48.69003" lon="2.02087">
        <ele>123</ele>
        <time>2021-06-10T15:53:48+02:00</time>
      </trkpt>
      <trkpt lat="48.69036" lon="2.02085">
        <ele>122</ele>
        <time>2021-06-10T15:53:53+02:00</time>
      </trkpt>
      <trkpt lat="48.6907" lon="2.02083">
        <ele>120</ele>
        <time>2021-06-10T15:53:58+02:00</time>
      </trkpt>
      <trkpt lat="48.69098" lon="2.02087">
        <ele>119</ele>
        <time>2021-06-10T15:54:03+02:00</time>
      </trkpt>
      <trkpt lat="48.69157" lon="2.02112">
        <ele>120</ele>
        <time>2021-06-10T15:54:08+02:00</time>
      </trkpt>
      <trkpt lat="48.69187" lon="2.02128">
        <ele>120</ele>
        <time>2021-06-10T15:54:13+02:00</time>
      </trkpt>
      <trkpt lat="48.69218" lon="2.02155">
        <ele>120</ele>
        <time>2021-06-10T15:54:18+02:00</time>
      </trkpt>
      <trkpt lat="48.69234" lon="2.02175">
        <ele>121</ele>
        <time>2021-06-10T15:54:23+02:00</time>
      </trkpt>
      <trkpt lat="48.69248" lon="2.02193">
        <ele>121</ele>
        <time>2021-06-10T15:54:28+02:00</time>
      </trkpt>
      <trkpt lat="48.69272" lon="2.02234">
        <ele>122</ele>
        <time>2021-06-10T15:54:33+02:00</time>
      </trkpt>
      <trkpt lat="48.69296" lon="2.02278">
        <ele>122</ele>
        <time>2021-06-10T15:54:38+02:00</time>
      </trkpt>
      <trkpt lat="48.6931" lon="2.02311">
        <ele>123</ele>
        <time>2021-06-10T15:54:43+02:00</time>
      </trkpt>
      <trkpt lat="48.69321" lon="2.02341">
        <ele>123</ele>
        <time>2021-06-10T15:54:48+02:00</time>
      </trkpt>
      <trkpt lat="48.69332" lon="2.02374">
        <ele>122</ele>
        <time>2021-06-10T15:54:53+02:00</time>
      </trkpt>
      <trkpt lat="48.69337" lon="2.02407">
        <ele>123</ele>
        <time>2021-06-10T15:54:58+02:00</time>
      </trkpt>
      <trkpt lat="48.69338" lon="2.02428">
        <ele>123</ele>
        <time>2021-06-10T15:55:03+02:00</time>
      </trkpt>
      <trkpt lat="48.69341" lon="2.02449">
        <ele>123</ele>
        <time>2021-06-10T15:55:08+02:00</time>
      </trkpt>
      <trkpt lat="48.69353" lon="2.02489">
        <ele>121</ele>
        <time>2021-06-10T15:55:13+02:00</time>
      </trkpt>
      <trkpt lat="48.694" lon="2.02562">
        <ele>115</ele>
        <time>2021-06-10T15:55:18+02:00</time>
      </trkpt>
      <trkpt lat="48.69408" lon="2.02574">
        <ele>114</ele>
        <time>2021-06-10T15:55:23+02:00</time>
      </trkpt>
      <trkpt lat="48.69405" lon="2.02585">
        <ele>115</ele>
        <time>2021-06-10T15:55:28+02:00</time>
      </trkpt>
      <trkpt lat="48.69399" lon="2.02592">
        <ele>117</ele>
        <time>2021-06-10T15:55:33+02:00</time>
      </trkpt>
      <trkpt lat="48.69387" lon="2.02593">
        <ele>119</ele>
        <time>2021-06-10T15:55:38+02:00</time>
      </trkpt>
      <trkpt lat="48.69374" lon="2.02598">
        <ele>122</ele>
        <time>2021-06-10T15:55:43+02:00</time>
      </trkpt>
      <trkpt lat="48.69328" lon="2.02605">
        <ele>132</ele>
        <time>2021-06-10T15:55:48+02:00</time>
      </trkpt>
      <trkpt lat="48.69284" lon="2.02596">
        <ele>140</ele>
        <time>2021-06-10T15:55:53+02:00</time>
      </trkpt>
      <trkpt lat="48.69202" lon="2.02651">
        <ele>152</ele>
        <time>2021-06-10T15:55:58+02:00</time>
      </trkpt>
      <trkpt lat="48.69174" lon="2.02651">
        <ele>154</ele>
        <time>2021-06-10T15:56:03+02:00</time>
      </trkpt>
      <trkpt lat="48.6915" lon="2.02656">
        <ele>157</ele>
        <time>2021-06-10T15:56:08+02:00</time>
      </trkpt>
      <trkpt lat="48.69107" lon="2.02679">
        <ele>161</ele>
        <time>2021-06-10T15:56:13+02:00</time>
      </trkpt>
      <trkpt lat="48.69062" lon="2.0271">
        <ele>164</ele>
        <time>2021-06-10T15:56:18+02:00</time>
      </trkpt>
      <trkpt lat="48.69039" lon="2.02737">
        <ele>165</ele>
        <time>2021-06-10T15:56:23+02:00</time>
      </trkpt>
      <trkpt lat="48.69024" lon="2.02751">
        <ele>166</ele>
        <time>2021-06-10T15:56:28+02:00</time>
      </trkpt>
      <trkpt lat="48.69122" lon="2.03049">
        <ele>166</ele>
        <time>2021-06-10T15:56:33+02:00</time>
      </trkpt>
      <trkpt lat="48.69144" lon="2.03113">
        <ele>167</ele>
        <time>2021-06-10T15:56:38+02:00</time>
      </trkpt>
      <trkpt lat="48.69147" lon="2.03132">
        <ele>167</ele>
        <time>2021-06-10T15:56:43+02:00</time>
      </trkpt>
      <trkpt lat="48.69149" lon="2.03173">
        <ele>168</ele>
        <time>2021-06-10T15:56:48+02:00</time>
      </trkpt>
      <trkpt lat="48.69148" lon="2.03196">
        <ele>167</ele>
        <time>2021-06-10T15:56:53+02:00</time>
      </trkpt>
      <trkpt lat="48.69149" lon="2.03223">
        <ele>166</ele>
        <time>2021-06-10T15:56:58+02:00</time>
      </trkpt>
      <trkpt lat="48.69145" lon="2.03257">
        <ele>165</ele>
        <time>2021-06-10T15:57:03+02:00</time>
      </trkpt>
      <trkpt lat="48.69136" lon="2.03314">
        <ele>165</ele>
        <time>2021-06-10T15:57:08+02:00</time>
      </trkpt>
      <trkpt lat="48.69118" lon="2.03425">
        <ele>161</ele>
        <time>2021-06-10T15:57:13+02:00</time>
      </trkpt>
      <trkpt lat="48.69141" lon="2.03461">
        <ele>161</ele>
        <time>2021-06-10T15:57:18+02:00</time>
      </trkpt>
      <trkpt lat="48.69161" lon="2.03492">
        <ele>161</ele>
        <time>2021-06-10T15:57:23+02:00</time>
      </trkpt>
      <trkpt lat="48.69252" lon="2.03553">
        <ele>160</ele>
        <time>2021-06-10T15:57:28+02:00</time>
      </trkpt>
      <trkpt lat="48.69306" lon="2.03587">
        <ele>158</ele>
        <time>2021-06-10T15:57:33+02:00</time>
      </trkpt>
      <trkpt lat="48.69358" lon="2.03625">
        <ele>159</ele>
        <time>2021-06-10T15:57:38+02:00</time>
      </trkpt>
      <trkpt lat="48.69384" lon="2.03644">
        <ele>160</ele>
        <time>2021-06-10T15:57:43+02:00</time>
      </trkpt>
      <trkpt lat="48.69399" lon="2.03654">
        <ele>161</ele>
        <time>2021-06-10T15:57:48+02:00</time>
      </trkpt>
      <trkpt lat="48.69454" lon="2.03692">
        <ele>163</ele>
        <time>2021-06-10T15:57:53+02:00</time>
      </trkpt>
      <trkpt lat="48.69551" lon="2.03759">
        <ele>169</ele>
        <time>2021-06-10T15:57:58+02:00</time>
      </trkpt>
      <trkpt lat="48.69602" lon="2.03794">
        <ele>171</ele>
        <time>2021-06-10T15:58:03+02:00</time>
      </trkpt>
      <trkpt lat="48.69654" lon="2.0383">
        <ele>171</ele>
        <time>2021-06-10T15:58:08+02:00</time>
      </trkpt>
      <trkpt lat="48.69809" lon="2.03936">
        <ele>164</ele>
        <time>2021-06-10T15:58:13+02:00</time>
      </trkpt>
      <trkpt lat="48.69859" lon="2.03974">
        <ele>156</ele>
        <time>2021-06-10T15:58:18+02:00</time>
      </trkpt>
      <trkpt lat="48.69915" lon="2.04007">
        <ele>146</ele>
        <time>2021-06-10T15:58:23+02:00</time>
      </trkpt>
      <trkpt lat="48.69928" lon="2.04016">
        <ele>144</ele>
        <time>2021-06-10T15:58:28+02:00</time>
      </trkpt>
      <trkpt lat="48.69943" lon="2.04021">
        <ele>141</ele>
        <time>2021-06-10T15:58:33+02:00</time>
      </trkpt>
      <trkpt lat="48.69947" lon="2.0403">
        <ele>141</ele>
        <time>2021-06-10T15:58:38+02:00</time>
      </trkpt>
      <trkpt lat="48.69981" lon="2.04057">
        <ele>134</ele>
        <time>2021-06-10T15:58:43+02:00</time>
      </trkpt>
      <trkpt lat="48.69996" lon="2.04075">
        <ele>132</ele>
        <time>2021-06-10T15:58:48+02:00</time>
      </trkpt>
      <trkpt lat="48.70022" lon="2.04078">
        <ele>127</ele>
        <time>2021-06-10T15:58:53+02:00</time>
      </trkpt>
      <trkpt lat="48.70048" lon="2.0408">
        <ele>122</ele>
        <time>2021-06-10T15:58:58+02:00</time>
      </trkpt>
      <trkpt lat="48.70095" lon="2.04081">
        <ele>114</ele>
        <time>2021-06-10T15:59:03+02:00</time>
      </trkpt>
      <trkpt lat="48.70129" lon="2.04072">
        <ele>109</ele>
        <time>2021-06-10T15:59:08+02:00</time>
      </trkpt>
      <trkpt lat="48.7017" lon="2.04067">
        <ele>104</ele>
        <time>2021-06-10T15:59:13+02:00</time>
      </trkpt>
      <trkpt lat="48.70192" lon="2.0406">
        <ele>102</ele>
        <time>2021-06-10T15:59:18+02:00</time>
      </trkpt>
      <trkpt lat="48.70219" lon="2.0405">
        <ele>99</ele>
        <time>2021-06-10T15:59:23+02:00</time>
      </trkpt>
      <trkpt lat="48.70251" lon="2.04041">
        <ele>95</ele>
        <time>2021-06-10T15:59:28+02:00</time>
      </trkpt>
      <trkpt lat="48.70276" lon="2.0403">
        <ele>93</ele>
        <time>2021-06-10T15:59:33+02:00</time>
      </trkpt>
      <trkpt lat="48.70327" lon="2.03993">
        <ele>90</ele>
        <time>2021-06-10T15:59:38+02:00</time>
      </trkpt>
      <trkpt lat="48.70344" lon="2.0397">
        <ele>89</ele>
        <time>2021-06-10T15:59:43+02:00</time>
      </trkpt>
      <trkpt lat="48.70356" lon="2.03957">
        <ele>88</ele>
        <time>2021-06-10T15:59:48+02:00</time>
      </trkpt>
      <trkpt lat="48.70359" lon="2.03956">
        <ele>88</ele>
        <time>2021-06-10T15:59:53+02:00</time>
      </trkpt>
      <trkpt lat="48.70369" lon="2.03953">
        <ele>87</ele>
        <time>2021-06-10T15:59:58+02:00</time>
      </trkpt>
      <trkpt lat="48.70396" lon="2.03945">
        <ele>86</ele>
        <time>2021-06-10T16:00:03+02:00</time>
      </trkpt>
      <trkpt lat="48.7044" lon="2.03933">
        <ele>83</ele>
        <time>2021-06-10T16:00:08+02:00</time>
      </trkpt>
      <trkpt lat="48.70448" lon="2.03903">
        <ele>82</ele>
        <time>2021-06-10T16:00:13+02:00</time>
      </trkpt>
      <trkpt lat="48.70451" lon="2.03861">
        <ele>82</ele>
        <time>2021-06-10T16:00:18+02:00</time>
      </trkpt>
      <trkpt lat="48.70453" lon="2.03821">
        <ele>82</ele>
        <time>2021-06-10T16:00:23+02:00</time>
      </trkpt>
      <trkpt lat="48.70454" lon="2.03799">
        <ele>82</ele>
        <time>2021-06-10T16:00:28+02:00</time>
      </trkpt>
      <trkpt lat="48.70456" lon="2.03783">
        <ele>82</ele>
        <time>2021-06-10T16:00:33+02:00</time>
      </trkpt>
      <trkpt lat="48.70468" lon="2.03773">
        <ele>81</ele>
        <time>2021-06-10T16:00:38+02:00</time>
      </trkpt>
      <trkpt lat="48.70478" lon="2.03767">
        <ele>81</ele>
        <time>2021-06-10T16:00:43+02:00</time>
      </trkpt>
      <trkpt lat="48.70544" lon="2.03766">
        <ele>79</ele>
        <time>2021-06-10T16:00:48+02:00</time>
      </trkpt>
      <trkpt lat="48.70544" lon="2.03819">
        <ele>79</ele>
        <time>2021-06-10T16:00:53+02:00</time>
      </trkpt>
      <trkpt lat="48.70547" lon="2.03828">
        <ele>79</ele>
        <time>2021-06-10T16:00:58+02:00</time>
      </trkpt>
      <trkpt lat="48.70593" lon="2.03886">
        <ele>79</ele>
        <time>2021-06-10T16:01:03+02:00</time>
      </trkpt>
      <trkpt lat="48.70666" lon="2.03982">
        <ele>80</ele>
        <time>2021-06-10T16:01:08+02:00</time>
      </trkpt>
      <trkpt lat="48.70667" lon="2.04053">
        <ele>81</ele>
        <time>2021-06-10T16:01:13+02:00</time>
      </trkpt>
      <trkpt lat="48.70672" lon="2.04129">
        <ele>81</ele>
        <time>2021-06-10T16:01:18+02:00</time>
      </trkpt>
      <trkpt lat="48.70676" lon="2.04216">
        <ele>80</ele>
        <time>2021-06-10T16:01:23+02:00</time>
      </trkpt>
      <trkpt lat="48.70673" lon="2.043">
        <ele>81</ele>
        <time>2021-06-10T16:01:28+02:00</time>
      </trkpt>
      <trkpt lat="48.70672" lon="2.04307">
        <ele>81</ele>
        <time>2021-06-10T16:01:33+02:00</time>
      </trkpt>
      <trkpt lat="48.70672" lon="2.04318">
        <ele>81</ele>
        <time>2021-06-10T16:01:38+02:00</time>
      </trkpt>
      <trkpt lat="48.70674" lon="2.04377">
        <ele>81</ele>
        <time>2021-06-10T16:01:43+02:00</time>
      </trkpt>
      <trkpt lat="48.70669" lon="2.04416">
        <ele>80</ele>
        <time>2021-06-10T16:01:48+02:00</time>
      </trkpt>
      <trkpt lat="48.70689" lon="2.04421">
        <ele>82</ele>
        <time>2021-06-10T16:01:53+02:00</time>
      </trkpt>
      <trkpt lat="48.7071" lon="2.04424">
        <ele>83</ele>
        <time>2021-06-10T16:01:58+02:00</time>
      </trkpt>
      <trkpt lat="48.7072" lon="2.04423">
        <ele>84</ele>
        <time>2021-06-10T16:02:03+02:00</time>
      </trkpt>
      <trkpt lat="48.70722" lon="2.04404">
        <ele>84</ele>
        <time>2021-06-10T16:02:08+02:00</time>
      </trkpt>
      <trkpt lat="48.70724" lon="2.0439">
        <ele>85</ele>
        <time>2021-06-10T16:02:13+02:00</time>
      </trkpt>
      <trkpt lat="48.70749" lon="2.04378">
        <ele>87</ele>
        <time>2021-06-10T16:02:18+02:00</time>
      </trkpt>
      <trkpt lat="48.70754" lon="2.03982">
        <ele>87</ele>
        <time>2021-06-10T16:02:23+02:00</time>
      </trkpt>
      <trkpt lat="48.70768" lon="2.03992">
        <ele>88</ele>
        <time>2021-06-10T16:02:28+02:00</time>
      </trkpt>
      <trkpt lat="48.70777" lon="2.04008">
        <ele>89</ele>
        <time>2021-06-10T16:02:33+02:00</time>
      </trkpt>
      <trkpt lat="48.70786" lon="2.04022">
        <ele>90</ele>
        <time>2021-06-10T16:02:38+02:00</time>
      </trkpt>
      <trkpt lat="48.70808" lon="2.04039">
        <ele>91</ele>
        <time>2021-06-10T16:02:43+02:00</time>
      </trkpt>
      <trkpt lat="48.70815" lon="2.04008">
        <ele>91</ele>
        <time>2021-06-10T16:02:48+02:00</time>
      </trkpt>
      <trkpt lat="48.70816" lon="2.03968">
        <ele>90</ele>
        <time>2021-06-10T16:02:53+02:00</time>
      </trkpt>
      <trkpt lat="48.70816" lon="2.04006">
        <ele>91</ele>
        <time>2021-06-10T16:02:58+02:00</time>
      </trkpt>
      <trkpt lat="48.70809" lon="2.04043">
        <ele>91</ele>
        <time>2021-06-10T16:03:03+02:00</time>
      </trkpt>
      <trkpt lat="48.70817" lon="2.04052">
        <ele>92</ele>
        <time>2021-06-10T16:03:08+02:00</time>
      </trkpt>
      <trkpt lat="48.70837" lon="2.04068">
        <ele>94</ele>
        <time>2021-06-10T16:03:13+02:00</time>
      </trkpt>
      <trkpt lat="48.70863" lon="2.04008">
        <ele>96</ele>
        <time>2021-06-10T16:03:18+02:00</time>
      </trkpt>
      <trkpt lat="48.70879" lon="2.0402">
        <ele>99</ele>
        <time>2021-06-10T16:03:23+02:00</time>
      </trkpt>
      <trkpt lat="48.70892" lon="2.04018">
        <ele>101</ele>
        <time>2021-06-10T16:03:28+02:00</time>
      </trkpt>
      <trkpt lat="48.70903" lon="2.04023">
        <ele>103</ele>
        <time>2021-06-10T16:03:33+02:00</time>
      </trkpt>
      <trkpt lat="48.70904" lon="2.04037">
        <ele>104</ele>
        <time>2021-06-10T16:03:38+02:00</time>
      </trkpt>
      <trkpt lat="48.70898" lon="2.04053">
        <ele>105</ele>
        <time>2021-06-10T16:03:43+02:00</time>
      </trkpt>
      <trkpt lat="48.70892" lon="2.04073">
        <ele>105</ele>
        <time>2021-06-10T16:03:48+02:00</time>
      </trkpt>
      <trkpt lat="48.70904" lon="2.04089">
        <ele>109</ele>
        <time>2021-06-10T16:03:53+02:00</time>
      </trkpt>
      <trkpt lat="48.70903" lon="2.04138">
        <ele>113</ele>
        <time>2021-06-10T16:03:58+02:00</time>
      </trkpt>
      <trkpt lat="48.70906" lon="2.04175">
        <ele>116</ele>
        <time>2021-06-10T16:04:03+02:00</time>
      </trkpt>
      <trkpt lat="48.7091" lon="2.04216">
        <ele>119</ele>
        <time>2021-06-10T16:04:08+02:00</time>
      </trkpt>
      <trkpt lat="48.7092" lon="2.04234">
        <ele>123</ele>
        <time>2021-06-10T16:04:13+02:00</time>
      </trkpt>
      <trkpt lat="48.70924" lon="2.04232">
        <ele>124</ele>
        <time>2021-06-10T16:04:18+02:00</time>
      </trkpt>
      <trkpt lat="48.70926" lon="2.04216">
        <ele>124</ele>
        <time>2021-06-10T16:04:23+02:00</time>
      </trkpt>
      <trkpt lat="48.70927" lon="2.04204">
        <ele>123</ele>
        <time>2021-06-10T16:04:28+02:00</time>
      </trkpt>
      <trkpt lat="48.70931" lon="2.04192">
        <ele>124</ele>
        <time>2021-06-10T16:04:33+02:00</time>
      </trkpt>
      <trkpt lat="48.70936" lon="2.04182">
        <ele>126</ele>
        <time>2021-06-10T16:04:38+02:00</time>
      </trkpt>
      <trkpt lat="48.70944" lon="2.04158">
        <ele>127</ele>
        <time>2021-06-10T16:04:43+02:00</time>
      </trkpt>
      <trkpt lat="48.70948" lon="2.04164">
        <ele>129</ele>
        <time>2021-06-10T16:04:48+02:00</time>
      </trkpt>
      <trkpt lat="48.70948" lon="2.04183">
        <ele>130</ele>
        <time>2021-06-10T16:04:53+02:00</time>
      </trkpt>
      <trkpt lat="48.70949" lon="2.04219">
        <ele>131</ele>
        <time>2021-06-10T16:04:58+02:00</time>
      </trkpt>
      <trkpt lat="48.70955" lon="2.04218">
        <ele>133</ele>
        <time>2021-06-10T16:05:03+02:00</time>
      </trkpt>
      <trkpt lat="48.70961" lon="2.0419">
        <ele>134</ele>
        <time>2021-06-10T16:05:08+02:00</time>
      </trkpt>
      <trkpt lat="48.70965" lon="2.04176">
        <ele>135</ele>
        <time>2021-06-10T16:05:13+02:00</time>
      </trkpt>
      <trkpt lat="48.70969" lon="2.04165">
        <ele>136</ele>
        <time>2021-06-10T16:05:18+02:00</time>
      </trkpt>
      <trkpt lat="48.70975" lon="2.04162">
        <ele>137</ele>
        <time>2021-06-10T16:05:23+02:00</time>
      </trkpt>
      <trkpt lat="48.70997" lon="2.04157">
        <ele>144</ele>
        <time>2021-06-10T16:05:28+02:00</time>
      </trkpt>
      <trkpt lat="48.71011" lon="2.04152">
        <ele>145</ele>
        <time>2021-06-10T16:05:33+02:00</time>
      </trkpt>
      <trkpt lat="48.71017" lon="2.0414">
        <ele>144</ele>
        <time>2021-06-10T16:05:38+02:00</time>
      </trkpt>
      <trkpt lat="48.71029" lon="2.04126">
        <ele>144</ele>
        <time>2021-06-10T16:05:43+02:00</time>
      </trkpt>
      <trkpt lat="48.71046" lon="2.04115">
        <ele>145</ele>
        <time>2021-06-10T16:05:48+02:00</time>
      </trkpt>
      <trkpt lat="48.71039" lon="2.04112">
        <ele>143</ele>
        <time>2021-06-10T16:05:53+02:00</time>
      </trkpt>
      <trkpt lat="48.71029" lon="2.04117">
        <ele>142</ele>
        <time>2021-06-10T16:05:58+02:00</time>
      </trkpt>
      <trkpt lat="48.71021" lon="2.04112">
        <ele>140</ele>
        <time>2021-06-10T16:06:03+02:00</time>
      </trkpt>
      <trkpt lat="48.71017" lon="2.04104">
        <ele>138</ele>
        <time>2021-06-10T16:06:08+02:00</time>
      </trkpt>
      <trkpt lat="48.71018" lon="2.04091">
        <ele>137</ele>
        <time>2021-06-10T16:06:13+02:00</time>
      </trkpt>
      <trkpt lat="48.71018" lon="2.04079">
        <ele>135</ele>
        <time>2021-06-10T16:06:18+02:00</time>
      </trkpt>
      <trkpt lat="48.71013" lon="2.04068">
        <ele>132</ele>
        <time>2021-06-10T16:06:23+02:00</time>
      </trkpt>
      <trkpt lat="48.71008" lon="2.0406">
        <ele>130</ele>
        <time>2021-06-10T16:06:28+02:00</time>
      </trkpt>
      <trkpt lat="48.71011" lon="2.04043">
        <ele>127</ele>
        <time>2021-06-10T16:06:33+02:00</time>
      </trkpt>
      <trkpt lat="48.7101" lon="2.04026">
        <ele>124</ele>
        <time>2021-06-10T16:06:38+02:00</time>
      </trkpt>
      <trkpt lat="48.71002" lon="2.03998">
        <ele>118</ele>
        <time>2021-06-10T16:06:43+02:00</time>
      </trkpt>
      <trkpt lat="48.70998" lon="2.03965">
        <ele>113</ele>
        <time>2021-06-10T16:06:48+02:00</time>
      </trkpt>
      <trkpt lat="48.70992" lon="2.03951">
        <ele>110</ele>
        <time>2021-06-10T16:06:53+02:00</time>
      </trkpt>
      <trkpt lat="48.70989" lon="2.03941">
        <ele>108</ele>
        <time>2021-06-10T16:06:58+02:00</time>
      </trkpt>
      <trkpt lat="48.70989" lon="2.03927">
        <ele>106</ele>
        <time>2021-06-10T16:07:03+02:00</time>
      </trkpt>
      <trkpt lat="48.7098" lon="2.03916">
        <ele>104</ele>
        <time>2021-06-10T16:07:08+02:00</time>
      </trkpt>
      <trkpt lat="48.70973" lon="2.03907">
        <ele>103</ele>
        <time>2021-06-10T16:07:13+02:00</time>
      </trkpt>
      <trkpt lat="48.70961" lon="2.03895">
        <ele>101</ele>
        <time>2021-06-10T16:07:18+02:00</time>
      </trkpt>
      <trkpt lat="48.70953" lon="2.03887">
        <ele>100</ele>
        <time>2021-06-10T16:07:23+02:00</time>
      </trkpt>
      <trkpt lat="48.70947" lon="2.03883">
        <ele>99</ele>
        <time>2021-06-10T16:07:28+02:00</time>
      </trkpt>
      <trkpt lat="48.7093" lon="2.03881">
        <ele>97</ele>
        <time>2021-06-10T16:07:33+02:00</time>
      </trkpt>
      <trkpt lat="48.70923" lon="2.03878">
        <ele>96</ele>
        <time>2021-06-10T16:07:38+02:00</time>
      </trkpt>
      <trkpt lat="48.70916" lon="2.03876">
        <ele>95</ele>
        <time>2021-06-10T16:07:43+02:00</time>
      </trkpt>
      <trkpt lat="48.7091" lon="2.03873">
        <ele>94</ele>
        <time>2021-06-10T16:07:48+02:00</time>
      </trkpt>
      <trkpt lat="48.70905" lon="2.0387">
        <ele>94</ele>
        <time>2021-06-10T16:07:53+02:00</time>
      </trkpt>
      <trkpt lat="48.70897" lon="2.03866">
        <ele>93</ele>
        <time>2021-06-10T16:07:58+02:00</time>
      </trkpt>
      <trkpt lat="48.7089" lon="2.03862">
        <ele>92</ele>
        <time>2021-06-10T16:08:03+02:00</time>
      </trkpt>
      <trkpt lat="48.70883" lon="2.03861">
        <ele>92</ele>
        <time>2021-06-10T16:08:08+02:00</time>
      </trkpt>
      <trkpt lat="48.70878" lon="2.03853">
        <ele>91</ele>
        <time>2021-06-10T16:08:13+02:00</time>
      </trkpt>
      <trkpt lat="48.70869" lon="2.03841">
        <ele>90</ele>
        <time>2021-06-10T16:08:18+02:00</time>
      </trkpt>
      <trkpt lat="48.70866" lon="2.03831">
        <ele>89</ele>
        <time>2021-06-10T16:08:23+02:00</time>
      </trkpt>
      <trkpt lat="48.70861" lon="2.03824">
        <ele>89</ele>
        <time>2021-06-10T16:08:28+02:00</time>
      </trkpt>
      <trkpt lat="48.70858" lon="2.03816">
        <ele>88</ele>
        <time>2021-06-10T16:08:33+02:00</time>
      </trkpt>
      <trkpt lat="48.70855" lon="2.03807">
        <ele>87</ele>
        <time>2021-06-10T16:08:38+02:00</time>
      </trkpt>
      <trkpt lat="48.70849" lon="2.03797">
        <ele>87</ele>
        <time>2021-06-10T16:08:43+02:00</time>
      </trkpt>
      <trkpt lat="48.70844" lon="2.03792">
        <ele>86</ele>
        <time>2021-06-10T16:08:48+02:00</time>
      </trkpt>
      <trkpt lat="48.70841" lon="2.03784">
        <ele>86</ele>
        <time>2021-06-10T16:08:53+02:00</time>
      </trkpt>
      <trkpt lat="48.70839" lon="2.03776">
        <ele>85</ele>
        <time>2021-06-10T16:08:58+02:00</time>
      </trkpt>
      <trkpt lat="48.70837" lon="2.0377">
        <ele>85</ele>
        <time>2021-06-10T16:09:03+02:00</time>
      </trkpt>
      <trkpt lat="48.70836" lon="2.03766">
        <ele>85</ele>
        <time>2021-06-10T16:09:08+02:00</time>
      </trkpt>
      <trkpt lat="48.7084" lon="2.03755">
        <ele>84</ele>
        <time>2021-06-10T16:09:13+02:00</time>
      </trkpt>
      <trkpt lat="48.70838" lon="2.03747">
        <ele>84</ele>
        <time>2021-06-10T16:09:18+02:00</time>
      </trkpt>
      <trkpt lat="48.70836" lon="2.03735">
        <ele>84</ele>
        <time>2021-06-10T16:09:23+02:00</time>
      </trkpt>
      <trkpt lat="48.70835" lon="2.03727">
        <ele>84</ele>
        <time>2021-06-10T16:09:28+02:00</time>
      </trkpt>
      <trkpt lat="48.70831" lon="2.03718">
        <ele>84</ele>
        <time>2021-06-10T16:09:33+02:00</time>
      </trkpt>
      <trkpt lat="48.70827" lon="2.03709">
        <ele>84</ele>
        <time>2021-06-10T16:09:38+02:00</time>
      </trkpt>
      <trkpt lat="48.7083" lon="2.03705">
        <ele>84</ele>
        <time>2021-06-10T16:09:43+02:00</time>
      </trkpt>
      <trkpt lat="48.70836" lon="2.03697">
        <ele>84</ele>
        <time>2021-06-10T16:09:48+02:00</time>
      </trkpt>
      <trkpt lat="48.70841" lon="2.03695">
        <ele>84</ele>
        <time>2021-06-10T16:09:53+02:00</time>
      </trkpt>
      <trkpt lat="48.70844" lon="2.03691">
        <ele>85</ele>
        <time>2021-06-10T16:09:58+02:00</time>
      </trkpt>
      <trkpt lat="48.70853" lon="2.03687">
        <ele>85</ele>
        <time>2021-06-10T16:10:03+02:00</time>
      </trkpt>
      <trkpt lat="48.7086" lon="2.03684">
        <ele>85</ele>
        <time>2021-06-10T16:10:08+02:00</time>
      </trkpt>
      <trkpt lat="48.70856" lon="2.03676">
        <ele>85</ele>
        <time>2021-06-10T16:10:13+02:00</time>
      </trkpt>
      <trkpt lat="48.70854" lon="2.0367">
        <ele>85</ele>
        <time>2021-06-10T16:10:18+02:00</time>
      </trkpt>
      <trkpt lat="48.70848" lon="2.03667">
        <ele>85</ele>
        <time>2021-06-10T16:10:23+02:00</time>
      </trkpt>
      <trkpt lat="48.70843" lon="2.0366">
        <ele>85</ele>
        <time>2021-06-10T16:10:28+02:00</time>
      </trkpt>
      <trkpt lat="48.7084" lon="2.03654">
        <ele>85</ele>
        <time>2021-06-10T16:10:33+02:00</time>
      </trkpt>
      <trkpt lat="48.70836" lon="2.03646">
        <ele>85</ele>
        <time>2021-06-10T16:10:38+02:00</time>
      </trkpt>
      <trkpt lat="48.70832" lon="2.03638">
        <ele>85</ele>
        <time>2021-06-10T16:10:43+02:00</time>
      </trkpt>
      <trkpt lat="48.70828" lon="2.03633">
        <ele>85</ele>
        <time>2021-06-10T16:10:48+02:00</time>
      </trkpt>
      <trkpt lat="48.70824" lon="2.03626">
        <ele>85</ele>
        <time>2021-06-10T16:10:53+02:00</time>
      </trkpt>
      <trkpt lat="48.70821" lon="2.0362">
        <ele>85</ele>
        <time>2021-06-10T16:10:58+02:00</time>
      </trkpt>
      <trkpt lat="48.70817" lon="2.03611">
        <ele>86</ele>
        <time>2021-06-10T16:11:03+02:00</time>
      </trkpt>
      <trkpt lat="48.70815" lon="2.03603">
        <ele>86</ele>
        <time>2021-06-10T16:11:08+02:00</time>
      </trkpt>
      <trkpt lat="48.70813" lon="2.03592">
        <ele>86</ele>
        <time>2021-06-10T16:11:13+02:00</time>
      </trkpt>
      <trkpt lat="48.70812" lon="2.03582">
        <ele>87</ele>
        <time>2021-06-10T16:11:18+02:00</time>
      </trkpt>
      <trkpt lat="48.70811" lon="2.03571">
        <ele>87</ele>
        <time>2021-06-10T16:11:23+02:00</time>
      </trkpt>
      <trkpt lat="48.70808" lon="2.0356">
        <ele>87</ele>
        <time>2021-06-10T16:11:28+02:00</time>
      </trkpt>
      <trkpt lat="48.70804" lon="2.03548">
        <ele>88</ele>
        <time>2021-06-10T16:11:33+02:00</time>
      </trkpt>
      <trkpt lat="48.708" lon="2.03539">
        <ele>88</ele>
        <time>2021-06-10T16:11:38+02:00</time>
      </trkpt>
      <trkpt lat="48.70796" lon="2.0353">
        <ele>88</ele>
        <time>2021-06-10T16:11:43+02:00</time>
      </trkpt>
      <trkpt lat="48.70792" lon="2.03522">
        <ele>88</ele>
        <time>2021-06-10T16:11:48+02:00</time>
      </trkpt>
      <trkpt lat="48.70789" lon="2.03511">
        <ele>88</ele>
        <time>2021-06-10T16:11:53+02:00</time>
      </trkpt>
      <trkpt lat="48.70781" lon="2.03496">
        <ele>88</ele>
        <time>2021-06-10T16:11:58+02:00</time>
      </trkpt>
      <trkpt lat="48.70784" lon="2.03503">
        <ele>88</ele>
        <time>2021-06-10T16:12:03+02:00</time>
      </trkpt>
      <trkpt lat="48.70778" lon="2.0349">
        <ele>89</ele>
        <time>2021-06-10T16:12:08+02:00</time>
      </trkpt>
      <trkpt lat="48.70775" lon="2.03481">
        <ele>89</ele>
        <time>2021-06-10T16:12:13+02:00</time>
      </trkpt>
      <trkpt lat="48.70771" lon="2.03473">
        <ele>89</ele>
        <time>2021-06-10T16:12:18+02:00</time>
      </trkpt>
      <trkpt lat="48.70768" lon="2.03468">
        <ele>89</ele>
        <time>2021-06-10T16:12:23+02:00</time>
      </trkpt>
      <trkpt lat="48.70763" lon="2.03457">
        <ele>89</ele>
        <time>2021-06-10T16:12:28+02:00</time>
      </trkpt>
      <trkpt lat="48.70757" lon="2.03445">
        <ele>89</ele>
        <time>2021-06-10T16:12:33+02:00</time>
      </trkpt>
      <trkpt lat="48.7075" lon="2.0343">
        <ele>90</ele>
        <time>2021-06-10T16:12:38+02:00</time>
      </trkpt>
      <trkpt lat="48.70744" lon="2.03416">
        <ele>90</ele>
        <time>2021-06-10T16:12:43+02:00</time>
      </trkpt>
      <trkpt lat="48.70736" lon="2.03401">
        <ele>90</ele>
        <time>2021-06-10T16:12:48+02:00</time>
      </trkpt>
      <trkpt lat="48.70729" lon="2.03387">
        <ele>91</ele>
        <time>2021-06-10T16:12:53+02:00</time>
      </trkpt>
      <trkpt lat="48.70721" lon="2.03368">
        <ele>92</ele>
        <time>2021-06-10T16:12:58+02:00</time>
      </trkpt>
      <trkpt lat="48.70713" lon="2.03346">
        <ele>93</ele>
        <time>2021-06-10T16:13:03+02:00</time>
      </trkpt>
      <trkpt lat="48.70706" lon="2.03351">
        <ele>92</ele>
        <time>2021-06-10T16:13:08+02:00</time>
      </trkpt>
      <trkpt lat="48.70699" lon="2.03358">
        <ele>92</ele>
        <time>2021-06-10T16:13:13+02:00</time>
      </trkpt>
      <trkpt lat="48.70686" lon="2.03371">
        <ele>90</ele>
        <time>2021-06-10T16:13:18+02:00</time>
      </trkpt>
      <trkpt lat="48.70665" lon="2.03387">
        <ele>89</ele>
        <time>2021-06-10T16:13:23+02:00</time>
      </trkpt>
      <trkpt lat="48.7065" lon="2.03399">
        <ele>87</ele>
        <time>2021-06-10T16:13:28+02:00</time>
      </trkpt>
      <trkpt lat="48.70635" lon="2.03406">
        <ele>86</ele>
        <time>2021-06-10T16:13:33+02:00</time>
      </trkpt>
      <trkpt lat="48.70626" lon="2.03377">
        <ele>87</ele>
        <time>2021-06-10T16:13:38+02:00</time>
      </trkpt>
      <trkpt lat="48.70611" lon="2.03331">
        <ele>88</ele>
        <time>2021-06-10T16:13:43+02:00</time>
      </trkpt>
      <trkpt lat="48.70602" lon="2.03306">
        <ele>88</ele>
        <time>2021-06-10T16:13:48+02:00</time>
      </trkpt>
      <trkpt lat="48.70594" lon="2.03284">
        <ele>89</ele>
        <time>2021-06-10T16:13:53+02:00</time>
      </trkpt>
      <trkpt lat="48.70586" lon="2.03261">
        <ele>89</ele>
        <time>2021-06-10T16:13:58+02:00</time>
      </trkpt>
      <trkpt lat="48.70581" lon="2.03246">
        <ele>89</ele>
        <time>2021-06-10T16:14:03+02:00</time>
      </trkpt>
      <trkpt lat="48.7062" lon="2.03216">
        <ele>92</ele>
        <time>2021-06-10T16:14:08+02:00</time>
      </trkpt>
    </trkseg>
  </trk>
</gpx>